createdAt,value
2022-11-29T00:01:41.447Z,21.56
2022-11-29T00:04:09.740Z,21.56
2022-11-29T00:06:38.722Z,21.54
2022-11-29T00:09:09.371Z,21.53
2022-11-29T00:11:56.979Z,21.52
2022-11-29T00:14:26.999Z,21.53
2022-11-29T00:16:59.503Z,21.51
2022-11-29T00:19:28.261Z,21.50
2022-11-29T00:21:56.745Z,21.51
2022-11-29T00:24:25.026Z,21.49
2022-11-29T00:26:53.294Z,21.47
2022-11-29T00:29:21.682Z,21.46
2022-11-29T00:31:50.159Z,21.44
2022-11-29T00:34:18.541Z,21.44
2022-11-29T00:36:46.916Z,21.42
2022-11-29T00:39:16.626Z,21.40
2022-11-29T00:41:47.463Z,21.40
2022-11-29T00:44:20.203Z,21.40
2022-11-29T00:46:49.660Z,21.41
2022-11-29T00:49:17.926Z,21.40
2022-11-29T00:51:47.329Z,21.38
2022-11-29T00:54:15.717Z,21.37
2022-11-29T00:56:44.495Z,21.36
2022-11-29T00:59:12.775Z,21.35
2022-11-29T01:01:41.239Z,21.34
2022-11-29T01:04:09.838Z,21.34
2022-11-29T01:06:38.221Z,21.33
2022-11-29T01:09:06.703Z,21.32
2022-11-29T01:11:35.082Z,21.30
2022-11-29T01:14:04.491Z,21.30
2022-11-29T01:16:33.506Z,21.29
2022-11-29T01:19:02.064Z,21.28
2022-11-29T01:21:31.057Z,21.29
2022-11-29T01:24:00.265Z,21.28
2022-11-29T01:26:30.375Z,21.26
2022-11-29T01:28:59.580Z,21.26
2022-11-29T01:31:33.588Z,21.27
2022-11-29T01:34:04.324Z,21.27
2022-11-29T01:36:33.312Z,21.28
2022-11-29T01:39:03.226Z,21.27
2022-11-29T01:41:33.757Z,21.28
2022-11-29T01:44:31.022Z,21.27
2022-11-29T01:46:59.391Z,21.31
2022-11-29T01:49:40.262Z,21.33
2022-11-29T01:52:11.306Z,21.30
2022-11-29T01:54:43.919Z,21.27
2022-11-29T01:57:13.696Z,21.26
2022-11-29T01:59:47.335Z,21.24
2022-11-29T02:02:37.810Z,21.23
2022-11-29T02:05:07.401Z,21.28
2022-11-29T02:07:36.239Z,21.28
2022-11-29T02:10:06.232Z,21.27
2022-11-29T02:12:51.588Z,21.23
2022-11-29T02:15:22.757Z,21.24
2022-11-29T02:18:09.647Z,21.23
2022-11-29T02:21:15.298Z,21.22
2022-11-29T02:24:01.707Z,21.20
2022-11-29T02:27:07.458Z,21.18
2022-11-29T02:30:00.313Z,21.18
2022-11-29T02:32:59.615Z,21.17
2022-11-29T02:36:11.426Z,21.16
2022-11-29T02:38:54.948Z,21.17
2022-11-29T02:41:51.386Z,21.13
2022-11-29T02:44:54.583Z,21.14
2022-11-29T02:47:32.076Z,21.15
2022-11-29T02:50:29.023Z,21.14
2022-11-29T02:53:05.707Z,21.13
2022-11-29T02:55:45.857Z,21.13
2022-11-29T02:58:19.871Z,21.14
2022-11-29T03:01:09.887Z,21.13
2022-11-29T03:03:51.366Z,21.15
2022-11-29T03:06:38.158Z,21.18
2022-11-29T03:09:43.118Z,21.16
2022-11-29T03:12:27.189Z,21.22
2022-11-29T03:15:03.394Z,21.23
2022-11-29T03:17:58.707Z,21.20
2022-11-29T03:20:55.144Z,21.19
2022-11-29T03:23:57.927Z,21.17
2022-11-29T03:26:33.205Z,21.18
2022-11-29T03:29:08.400Z,21.17
2022-11-29T03:31:42.623Z,21.15
2022-11-29T03:34:52.934Z,21.12
2022-11-29T03:37:48.915Z,21.17
2022-11-29T03:40:23.012Z,21.14
2022-11-29T03:42:57.153Z,21.11
2022-11-29T03:45:35.973Z,21.10
2022-11-29T03:48:08.132Z,21.06
2022-11-29T03:50:46.359Z,21.04
2022-11-29T03:53:33.363Z,21.03
2022-11-29T03:56:05.552Z,21.02
2022-11-29T03:58:55.721Z,21.00
2022-11-29T04:02:01.476Z,21.02
2022-11-29T04:04:55.350Z,21.03
2022-11-29T04:07:48.348Z,21.01
2022-11-29T04:10:57.340Z,21.00
2022-11-29T04:13:47.353Z,21.02
2022-11-29T04:16:44.069Z,21.03
2022-11-29T04:20:03.136Z,21.03
2022-11-29T04:22:40.531Z,21.07
2022-11-29T04:25:40.958Z,21.02
2022-11-29T04:28:33.678Z,21.03
2022-11-29T04:31:29.475Z,21.01
2022-11-29T04:34:14.399Z,21.01
2022-11-29T04:36:46.771Z,21.02
2022-11-29T04:39:43.006Z,21.02
2022-11-29T04:42:37.288Z,21.01
2022-11-29T04:45:40.180Z,20.97
2022-11-29T04:48:19.718Z,21.00
2022-11-29T04:51:05.923Z,21.00
2022-11-29T04:53:40.337Z,20.99
2022-11-29T04:56:12.204Z,20.95
2022-11-29T04:58:56.349Z,20.93
2022-11-29T05:01:32.844Z,20.93
2022-11-29T05:04:17.783Z,20.93
2022-11-29T05:07:07.976Z,20.91
2022-11-29T05:09:53.456Z,20.91
2022-11-29T05:12:39.349Z,20.94
2022-11-29T05:15:30.662Z,21.00
2022-11-29T05:18:26.692Z,21.07
2022-11-29T05:21:14.839Z,21.05
2022-11-29T05:23:58.899Z,21.08
2022-11-29T05:26:33.920Z,21.10
2022-11-29T05:29:12.433Z,21.10
2022-11-29T05:32:11.840Z,21.13
2022-11-29T05:34:52.917Z,21.15
2022-11-29T05:38:02.263Z,21.16
2022-11-29T05:41:08.831Z,21.24
2022-11-29T05:43:56.053Z,21.32
2022-11-29T05:46:49.806Z,21.32
2022-11-29T05:49:36.747Z,21.33
2022-11-29T05:52:24.884Z,21.38
2022-11-29T05:55:14.561Z,21.43
2022-11-29T05:57:46.322Z,21.47
2022-11-29T06:00:16.974Z,21.50
2022-11-29T06:03:03.941Z,21.55
2022-11-29T06:06:01.095Z,21.65
2022-11-29T06:08:41.594Z,21.77
2022-11-29T06:11:23.857Z,21.82
2022-11-29T06:14:30.164Z,21.85
2022-11-29T06:17:30.982Z,21.92
2022-11-29T06:20:35.218Z,21.99
2022-11-29T06:23:12.712Z,22.02
2022-11-29T06:26:07.716Z,21.98
2022-11-29T06:28:39.059Z,22.00
2022-11-29T06:31:19.350Z,22.01
2022-11-29T06:33:50.774Z,22.03
2022-11-29T06:36:38.518Z,22.01
2022-11-29T06:39:07.586Z,22.03
2022-11-29T06:41:36.395Z,22.04
2022-11-29T06:44:05.649Z,22.05
2022-11-29T06:46:47.075Z,22.05
2022-11-29T06:49:29.486Z,22.09
2022-11-29T06:52:30.534Z,22.11
2022-11-29T06:55:17.561Z,22.18
2022-11-29T06:58:41.533Z,22.21
2022-11-29T07:01:15.633Z,22.33
2022-11-29T07:03:46.896Z,22.36
2022-11-29T07:06:21.824Z,22.34
2022-11-29T07:08:55.789Z,22.37
2022-11-29T07:11:24.383Z,22.39
2022-11-29T07:13:53.208Z,22.42
2022-11-29T07:16:57.490Z,22.46
2022-11-29T07:19:56.018Z,22.49
2022-11-29T07:22:41.092Z,22.51
2022-11-29T07:25:35.896Z,22.55
2022-11-29T07:28:22.905Z,22.58
2022-11-29T07:31:12.766Z,22.58
2022-11-29T07:34:05.331Z,22.60
2022-11-29T07:37:09.553Z,22.62
2022-11-29T07:39:37.932Z,22.68
2022-11-29T07:42:20.031Z,22.65
2022-11-29T07:45:18.740Z,22.69
2022-11-29T07:47:47.203Z,22.71
2022-11-29T07:50:16.023Z,22.66
2022-11-29T07:52:44.680Z,22.60
2022-11-29T07:55:18.628Z,22.57
2022-11-29T07:57:50.959Z,22.55
2022-11-29T08:00:20.480Z,22.54
2022-11-29T08:02:50.382Z,22.53
2022-11-29T08:05:18.864Z,22.50
2022-11-29T08:07:48.018Z,22.48
2022-11-29T08:10:17.783Z,22.47
2022-11-29T08:12:50.307Z,22.47
2022-11-29T08:15:22.829Z,22.47
2022-11-29T08:17:51.331Z,22.46
2022-11-29T08:20:20.021Z,22.46
2022-11-29T08:22:58.954Z,22.43
2022-11-29T08:25:28.266Z,22.41
2022-11-29T08:27:56.913Z,22.38
2022-11-29T08:30:25.185Z,22.37
2022-11-29T08:32:53.564Z,22.32
2022-11-29T08:35:24.094Z,22.30
2022-11-29T08:37:52.371Z,22.29
2022-11-29T08:40:20.752Z,22.28
2022-11-29T08:42:49.129Z,22.25
2022-11-29T08:45:17.520Z,22.23
2022-11-29T08:47:45.995Z,22.23
2022-11-29T08:50:16.707Z,22.23
2022-11-29T08:53:05.890Z,22.23
2022-11-29T08:55:43.263Z,22.27
2022-11-29T08:58:14.195Z,22.34
2022-11-29T09:00:45.708Z,22.34
2022-11-29T09:03:32.898Z,22.35
2022-11-29T09:06:21.450Z,22.34
2022-11-29T09:08:49.844Z,22.32
2022-11-29T09:11:21.269Z,22.32
2022-11-29T09:13:51.918Z,22.31
2022-11-29T09:16:23.610Z,22.31
2022-11-29T09:18:55.227Z,22.27
2022-11-29T09:21:25.250Z,22.26
2022-11-29T09:23:59.461Z,22.27
2022-11-29T09:26:30.820Z,22.24
2022-11-29T09:29:01.550Z,22.22
2022-11-29T09:31:31.247Z,22.19
2022-11-29T09:34:00.040Z,22.16
2022-11-29T09:36:30.402Z,22.18
2022-11-29T09:38:59.728Z,22.14
2022-11-29T09:41:48.558Z,22.12
2022-11-29T09:44:33.364Z,22.13
2022-11-29T09:47:28.195Z,22.17
2022-11-29T09:50:08.347Z,22.20
2022-11-29T09:52:55.368Z,22.19
2022-11-29T09:55:33.471Z,22.25
2022-11-29T09:58:04.063Z,22.24
2022-11-29T10:00:36.473Z,22.23
2022-11-29T10:03:14.896Z,22.19
2022-11-29T10:05:50.478Z,22.21
2022-11-29T10:08:32.335Z,22.20
2022-11-29T10:11:23.147Z,22.21
2022-11-29T10:13:56.865Z,22.22
2022-11-29T10:16:31.997Z,22.20
2022-11-29T10:19:53.093Z,22.15
2022-11-29T10:22:44.413Z,22.23
2022-11-29T10:25:20.897Z,22.27
2022-11-29T10:27:49.498Z,22.24
2022-11-29T10:30:18.894Z,22.28
2022-11-29T10:32:51.863Z,22.25
2022-11-29T10:35:20.852Z,22.18
2022-11-29T10:38:14.675Z,22.13
2022-11-29T10:40:40.340Z,22.17
2022-11-29T10:43:09.537Z,22.16
2022-11-29T10:45:46.118Z,22.15
2022-11-29T10:48:22.272Z,22.13
2022-11-29T10:50:52.601Z,22.15
2022-11-29T10:53:26.884Z,22.14
2022-11-29T10:56:04.631Z,22.10
2022-11-29T10:58:33.606Z,22.08
2022-11-29T11:01:07.148Z,22.05
2022-11-29T11:03:53.103Z,22.02
2022-11-29T11:06:46.154Z,22.07
2022-11-29T11:09:43.860Z,22.12
2022-11-29T11:12:20.028Z,22.13
2022-11-29T11:14:48.984Z,22.10
2022-11-29T11:17:30.568Z,22.06
2022-11-29T11:20:08.680Z,22.03
2022-11-29T11:22:40.227Z,22.00
2022-11-29T11:25:26.461Z,21.97
2022-11-29T11:27:55.043Z,21.98
2022-11-29T11:30:29.054Z,21.95
2022-11-29T11:33:31.503Z,21.91
2022-11-29T11:36:13.781Z,21.94
2022-11-29T11:38:57.036Z,21.91
2022-11-29T11:41:52.342Z,21.88
2022-11-29T11:44:51.723Z,21.85
2022-11-29T11:47:25.863Z,21.84
2022-11-29T11:50:07.247Z,21.83
2022-11-29T11:52:50.811Z,21.80
2022-11-29T11:55:24.899Z,21.76
2022-11-29T11:58:02.259Z,21.73
2022-11-29T12:01:03.553Z,21.72
2022-11-29T12:03:55.570Z,21.77
2022-11-29T12:06:42.385Z,21.79
2022-11-29T12:09:45.891Z,21.77
2022-11-29T12:12:28.600Z,21.71
2022-11-29T12:14:59.549Z,21.65
2022-11-29T12:17:39.183Z,21.63
2022-11-29T12:20:22.412Z,21.60
2022-11-29T12:22:51.105Z,21.58
2022-11-29T12:25:28.590Z,21.54
2022-11-29T12:27:56.974Z,21.54
2022-11-29T12:30:25.360Z,21.51
2022-11-29T12:33:08.883Z,21.49
2022-11-29T12:35:50.779Z,21.48
2022-11-29T12:38:34.419Z,21.48
2022-11-29T12:41:37.612Z,21.46
2022-11-29T12:44:18.589Z,21.44
2022-11-29T12:47:28.142Z,21.42
2022-11-29T12:50:11.463Z,21.48
2022-11-29T12:52:48.859Z,21.49
2022-11-29T12:55:30.748Z,21.46
2022-11-29T12:58:05.878Z,21.42
2022-11-29T13:00:51.472Z,21.43
2022-11-29T13:03:58.148Z,21.44
2022-11-29T13:06:30.930Z,21.48
2022-11-29T13:09:11.503Z,21.45
2022-11-29T13:11:59.846Z,21.43
2022-11-29T13:14:53.211Z,21.38
2022-11-29T13:17:27.733Z,21.37
2022-11-29T13:19:59.592Z,21.37
2022-11-29T13:22:46.612Z,21.36
2022-11-29T13:25:23.696Z,21.34
2022-11-29T13:27:58.831Z,21.31
2022-11-29T13:30:27.213Z,21.31
2022-11-29T13:33:12.278Z,21.31
2022-11-29T13:35:47.071Z,21.28
2022-11-29T13:38:18.475Z,21.29
2022-11-29T13:40:56.052Z,21.27
2022-11-29T13:43:30.743Z,21.25
2022-11-29T13:46:33.412Z,21.25
2022-11-29T13:49:01.851Z,21.27
2022-11-29T13:51:30.227Z,21.22
2022-11-29T13:54:01.960Z,21.20
2022-11-29T13:56:37.124Z,21.19
2022-11-29T13:59:08.806Z,21.20
2022-11-29T14:01:48.343Z,21.21
2022-11-29T14:04:28.988Z,21.17
2022-11-29T14:07:13.451Z,21.20
2022-11-29T14:09:58.258Z,21.19
2022-11-29T14:12:28.534Z,21.21
2022-11-29T14:14:57.222Z,21.23
2022-11-29T14:17:51.202Z,21.22
2022-11-29T14:20:25.720Z,21.22
2022-11-29T14:23:06.186Z,21.23
2022-11-29T14:25:56.476Z,21.19
2022-11-29T14:28:24.864Z,21.18
2022-11-29T14:31:03.821Z,21.13
2022-11-29T14:33:40.969Z,21.14
2022-11-29T14:36:15.451Z,21.15
2022-11-29T14:38:46.632Z,21.12
2022-11-29T14:41:28.005Z,21.11
2022-11-29T14:44:30.192Z,21.11
2022-11-29T14:47:05.120Z,21.12
2022-11-29T14:49:45.383Z,21.14
2022-11-29T14:52:13.560Z,21.16
2022-11-29T14:55:09.334Z,21.16
2022-11-29T14:57:52.912Z,21.18
2022-11-29T15:00:42.286Z,21.17
2022-11-29T15:03:25.534Z,21.18
2022-11-29T15:06:11.832Z,21.17
2022-11-29T15:09:02.864Z,21.19
2022-11-29T15:11:40.219Z,21.18
2022-11-29T15:14:31.280Z,21.19
2022-11-29T15:17:14.858Z,21.20
2022-11-29T15:19:52.354Z,21.21
2022-11-29T15:22:24.488Z,21.20
2022-11-29T15:24:53.976Z,21.16
2022-11-29T15:27:23.019Z,21.17
2022-11-29T15:29:52.988Z,21.16
2022-11-29T15:32:21.317Z,21.17
2022-11-29T15:34:52.385Z,21.14
2022-11-29T15:37:32.615Z,21.10
2022-11-29T15:40:04.059Z,21.09
2022-11-29T15:42:44.184Z,21.07
2022-11-29T15:45:35.473Z,21.06
2022-11-29T15:48:23.166Z,21.06
2022-11-29T15:51:06.395Z,21.03
2022-11-29T15:53:42.850Z,21.02
2022-11-29T15:56:20.666Z,21.01
2022-11-29T15:58:50.479Z,21.02
2022-11-29T16:01:22.236Z,21.02
2022-11-29T16:03:53.892Z,21.02
2022-11-29T16:06:41.731Z,21.03
2022-11-29T16:09:14.760Z,21.03
2022-11-29T16:11:43.300Z,21.03
2022-11-29T16:14:11.474Z,21.03
2022-11-29T16:16:40.934Z,21.01
2022-11-29T16:19:18.577Z,21.01
2022-11-29T16:22:01.102Z,21.01
2022-11-29T16:24:29.608Z,21.04
2022-11-29T16:27:00.412Z,21.05
2022-11-29T16:29:36.873Z,21.02
2022-11-29T16:32:30.141Z,21.01
2022-11-29T16:35:07.623Z,21.01
2022-11-29T16:37:41.666Z,20.99
2022-11-29T16:40:29.857Z,20.99
2022-11-29T16:43:04.401Z,21.02
2022-11-29T16:45:39.284Z,21.02
2022-11-29T16:48:22.779Z,21.01
2022-11-29T16:51:21.261Z,20.97
2022-11-29T16:53:53.327Z,20.97
2022-11-29T16:56:24.792Z,20.97
2022-11-29T16:59:21.095Z,20.93
2022-11-29T17:01:46.141Z,20.95
2022-11-29T17:04:23.558Z,20.96
2022-11-29T17:06:57.209Z,20.95
2022-11-29T17:09:31.734Z,20.92
2022-11-29T17:12:01.361Z,20.91
2022-11-29T17:14:30.026Z,20.91
2022-11-29T17:17:02.179Z,20.90
2022-11-29T17:19:31.081Z,20.89
2022-11-29T17:21:59.668Z,20.89
2022-11-29T17:24:28.149Z,20.89
2022-11-29T17:26:56.327Z,20.87
2022-11-29T17:29:24.715Z,20.88
2022-11-29T17:31:53.855Z,20.89
2022-11-29T17:34:22.188Z,20.91
2022-11-29T17:36:52.099Z,20.89
2022-11-29T17:39:22.035Z,20.88
2022-11-29T17:41:50.491Z,20.91
2022-11-29T17:44:18.882Z,20.92
2022-11-29T17:46:47.147Z,20.91
2022-11-29T17:49:15.627Z,20.89
2022-11-29T17:51:52.979Z,20.87
2022-11-29T17:54:23.040Z,20.89
2022-11-29T17:56:52.137Z,20.90
2022-11-29T17:59:20.728Z,20.88
2022-11-29T18:01:49.226Z,20.88
2022-11-29T18:04:17.800Z,20.88
2022-11-29T18:06:50.405Z,20.85
2022-11-29T18:09:20.168Z,20.85
2022-11-29T18:11:50.502Z,20.84
2022-11-29T18:14:24.269Z,20.84
2022-11-29T18:16:52.750Z,20.85
2022-11-29T18:19:21.751Z,20.88
2022-11-29T18:21:50.856Z,20.90
2022-11-29T18:24:19.778Z,20.89
2022-11-29T18:26:48.351Z,20.88
2022-11-29T18:29:17.041Z,20.88
2022-11-29T18:31:46.467Z,20.87
2022-11-29T18:34:15.240Z,20.87
2022-11-29T18:36:46.272Z,20.90
2022-11-29T18:39:19.527Z,20.88
2022-11-29T18:41:49.685Z,20.87
2022-11-29T18:44:20.629Z,20.88
2022-11-29T18:46:49.326Z,20.89
2022-11-29T18:49:18.533Z,20.90
2022-11-29T18:51:47.917Z,20.89
2022-11-29T18:54:18.548Z,20.91
2022-11-29T18:56:47.747Z,20.91
2022-11-29T18:59:18.510Z,20.89
2022-11-29T19:01:48.692Z,20.96
2022-11-29T19:04:19.701Z,20.92
2022-11-29T19:06:48.745Z,20.87
2022-11-29T19:09:21.574Z,20.88
2022-11-29T19:11:51.163Z,20.91
2022-11-29T19:14:19.939Z,20.91
2022-11-29T19:16:49.377Z,20.89
2022-11-29T19:19:19.243Z,20.88
2022-11-29T19:21:48.240Z,20.86
2022-11-29T19:24:18.405Z,20.85
2022-11-29T19:26:47.971Z,20.83
2022-11-29T19:29:16.762Z,20.82
2022-11-29T19:31:44.924Z,20.84
2022-11-29T19:34:13.405Z,20.86
2022-11-29T19:36:43.702Z,20.84
2022-11-29T19:39:15.001Z,20.84
2022-11-29T19:41:45.639Z,20.84
2022-11-29T19:44:14.294Z,20.83
2022-11-29T19:46:46.152Z,20.83
2022-11-29T19:49:15.041Z,20.83
2022-11-29T19:51:43.327Z,20.82
2022-11-29T19:54:12.352Z,20.85
2022-11-29T19:56:40.900Z,20.88
2022-11-29T19:59:09.585Z,20.91
2022-11-29T20:01:41.553Z,20.96
2022-11-29T20:04:12.904Z,21.06
2022-11-29T20:06:41.803Z,21.10
2022-11-29T20:09:11.098Z,21.14
2022-11-29T20:11:39.681Z,21.18
2022-11-29T20:14:09.294Z,21.22
2022-11-29T20:16:39.321Z,21.25
2022-11-29T20:19:16.389Z,21.29
2022-11-29T20:21:48.031Z,21.34
2022-11-29T20:24:17.756Z,21.35
2022-11-29T20:26:47.582Z,21.40
2022-11-29T20:29:16.872Z,21.47
2022-11-29T20:31:50.228Z,21.50
2022-11-29T20:34:20.467Z,21.57
2022-11-29T20:37:13.573Z,21.62
2022-11-29T20:39:52.657Z,21.64
2022-11-29T20:42:44.213Z,21.66
2022-11-29T20:45:14.304Z,21.72
2022-11-29T20:47:48.204Z,21.74
2022-11-29T20:50:23.600Z,21.76
2022-11-29T20:52:56.963Z,21.78
2022-11-29T20:55:25.548Z,21.80
2022-11-29T20:57:53.823Z,21.82
2022-11-29T21:00:22.618Z,21.84
2022-11-29T21:02:50.994Z,21.84
2022-11-29T21:05:19.474Z,21.84
2022-11-29T21:07:47.999Z,21.84
2022-11-29T21:10:16.746Z,21.84
2022-11-29T21:12:45.998Z,21.84
2022-11-29T21:15:15.232Z,21.84
2022-11-29T21:17:44.041Z,21.84
2022-11-29T21:20:22.434Z,21.85
2022-11-29T21:23:13.767Z,21.85
2022-11-29T21:25:59.550Z,21.91
2022-11-29T21:28:32.697Z,21.95
2022-11-29T21:31:01.511Z,21.94
2022-11-29T21:33:30.428Z,21.89
2022-11-29T21:35:59.318Z,21.89
2022-11-29T21:38:27.797Z,21.86
2022-11-29T21:40:56.074Z,21.85
2022-11-29T21:43:43.592Z,21.82
2022-11-29T21:46:12.926Z,21.85
2022-11-29T21:48:42.717Z,21.89
2022-11-29T21:51:12.119Z,21.86
2022-11-29T21:53:41.121Z,21.84
2022-11-29T21:56:11.061Z,21.82
2022-11-29T21:58:39.924Z,21.81
2022-11-29T22:01:13.520Z,21.81
2022-11-29T22:03:42.826Z,21.79
2022-11-29T22:06:13.256Z,21.78
2022-11-29T22:08:42.141Z,21.76
2022-11-29T22:11:13.685Z,21.74
2022-11-29T22:14:02.301Z,21.73
2022-11-29T22:16:30.951Z,22.12
2022-11-29T22:18:59.126Z,22.11
2022-11-29T22:21:28.412Z,21.98
2022-11-29T22:23:57.402Z,21.88
2022-11-29T22:26:25.683Z,21.82
2022-11-29T22:28:53.956Z,21.76
2022-11-29T22:31:22.371Z,21.70
2022-11-29T22:33:54.407Z,21.66
2022-11-29T22:36:23.191Z,21.63
2022-11-29T22:38:51.697Z,21.61
2022-11-29T22:41:20.361Z,21.58
2022-11-29T22:43:49.557Z,21.56
2022-11-29T22:46:22.786Z,21.54
2022-11-29T22:48:53.060Z,21.51
2022-11-29T22:51:23.941Z,21.49
2022-11-29T22:54:06.193Z,21.47
2022-11-29T22:56:37.392Z,21.48
2022-11-29T22:59:06.048Z,21.47
2022-11-29T23:01:36.296Z,21.45
2022-11-29T23:04:07.377Z,21.43
2022-11-29T23:06:38.299Z,21.40
2022-11-29T23:09:15.478Z,21.37
2022-11-29T23:11:45.361Z,21.36
2022-11-29T23:14:13.528Z,21.36
2022-11-29T23:16:42.100Z,21.33
2022-11-29T23:19:11.001Z,21.30
2022-11-29T23:21:41.230Z,21.27
2022-11-29T23:24:09.812Z,21.25
2022-11-29T23:26:40.573Z,21.24
2022-11-29T23:29:11.281Z,21.22
2022-11-29T23:31:40.272Z,21.21
2022-11-29T23:34:08.715Z,21.20
2022-11-29T23:36:37.139Z,21.18
2022-11-29T23:39:06.906Z,21.16
2022-11-29T23:41:36.541Z,21.15
2022-11-29T23:44:08.281Z,21.13
2022-11-29T23:46:36.692Z,21.12
2022-11-29T23:49:05.073Z,21.12
2022-11-29T23:51:33.454Z,21.11
2022-11-29T23:54:01.831Z,21.09
2022-11-29T23:56:35.705Z,21.06
2022-11-29T23:59:04.429Z,21.06
